sensor_id;sensor_type;location;lat;lon;timestamp;pressure;altitude;pressure_sealevel;temperature;humidity
36726;BME280;44936;52.086;5.150;2023-05-25T00:00:26;103242.28;;;11.72;100.00
36726;BME280;44936;52.086;5.150;2023-05-25T00:02:53;103242.97;;;11.67;100.00
36726;BME280;44936;52.086;5.150;2023-05-25T00:05:18;103242.72;;;11.60;100.00
36726;BME280;44936;52.086;5.150;2023-05-25T00:07:45;103245.06;;;11.53;100.00
36726;BME280;44936;52.086;5.150;2023-05-25T00:10:10;103242.19;;;11.47;100.00
36726;BME280;44936;52.086;5.150;2023-05-25T00:12:35;103265.09;;;11.49;100.00
36726;BME280;44936;52.086;5.150;2023-05-25T00:15:06;103261.56;;;11.49;100.00
36726;BME280;44936;52.086;5.150;2023-05-25T00:17:31;103264.00;;;11.44;100.00
36726;BME280;44936;52.086;5.150;2023-05-25T00:19:58;103240.75;;;11.31;100.00
36726;BME280;44936;52.086;5.150;2023-05-25T00:22:35;103256.69;;;11.35;100.00
36726;BME280;44936;52.086;5.150;2023-05-25T00:25:03;103242.84;;;11.17;100.00
36726;BME280;44936;52.086;5.150;2023-05-25T00:27:30;103257.94;;;11.23;100.00
36726;BME280;44936;52.086;5.150;2023-05-25T00:29:56;103262.16;;;11.19;100.00
36726;BME280;44936;52.086;5.150;2023-05-25T00:32:22;103258.66;;;11.19;100.00
36726;BME280;44936;52.086;5.150;2023-05-25T00:34:47;103255.78;;;11.13;100.00
36726;BME280;44936;52.086;5.150;2023-05-25T00:37:13;103250.41;;;11.10;100.00
36726;BME280;44936;52.086;5.150;2023-05-25T00:39:39;103212.63;;;10.84;100.00
36726;BME280;44936;52.086;5.150;2023-05-25T00:42:06;103246.78;;;11.06;100.00
36726;BME280;44936;52.086;5.150;2023-05-25T00:44:31;103243.06;;;11.01;100.00
36726;BME280;44936;52.086;5.150;2023-05-25T00:46:58;103244.75;;;10.99;100.00
36726;BME280;44936;52.086;5.150;2023-05-25T00:49:24;103250.88;;;10.99;100.00
36726;BME280;44936;52.086;5.150;2023-05-25T00:51:51;103245.53;;;10.96;100.00
36726;BME280;44936;52.086;5.150;2023-05-25T00:54:17;103234.75;;;10.90;100.00
36726;BME280;44936;52.086;5.150;2023-05-25T00:56:51;103241.75;;;10.90;100.00
36726;BME280;44936;52.086;5.150;2023-05-25T00:59:23;103244.31;;;10.88;100.00
36726;BME280;44936;52.086;5.150;2023-05-25T01:01:52;103236.97;;;10.80;100.00
36726;BME280;44936;52.086;5.150;2023-05-25T01:04:19;103230.50;;;10.71;100.00
36726;BME280;44936;52.086;5.150;2023-05-25T01:06:47;103248.94;;;10.73;100.00
36726;BME280;44936;52.086;5.150;2023-05-25T01:09:15;103272.44;;;10.70;100.00
36726;BME280;44936;52.086;5.150;2023-05-25T01:11:43;103270.72;;;10.70;100.00
36726;BME280;44936;52.086;5.150;2023-05-25T01:14:10;103272.44;;;10.70;100.00
36726;BME280;44936;52.086;5.150;2023-05-25T01:16:35;103259.06;;;10.64;100.00
36726;BME280;44936;52.086;5.150;2023-05-25T01:19:02;103259.75;;;10.60;100.00
36726;BME280;44936;52.086;5.150;2023-05-25T01:21:36;103259.84;;;10.61;100.00
36726;BME280;44936;52.086;5.150;2023-05-25T01:24:29;103265.94;;;10.60;100.00
36726;BME280;44936;52.086;5.150;2023-05-25T01:27:03;103266.56;;;10.55;100.00
36726;BME280;44936;52.086;5.150;2023-05-25T01:29:32;103266.69;;;10.58;100.00
36726;BME280;44936;52.086;5.150;2023-05-25T01:31:58;103257.59;;;10.49;100.00
36726;BME280;44936;52.086;5.150;2023-05-25T01:34:24;103268.06;;;10.49;100.00
36726;BME280;44936;52.086;5.150;2023-05-25T01:36:50;103266.06;;;10.42;100.00
36726;BME280;44936;52.086;5.150;2023-05-25T01:39:16;103248.00;;;10.29;100.00
36726;BME280;44936;52.086;5.150;2023-05-25T01:41:44;103278.75;;;10.33;100.00
36726;BME280;44936;52.086;5.150;2023-05-25T01:44:10;103299.75;;;10.33;100.00
36726;BME280;44936;52.086;5.150;2023-05-25T01:46:37;103290.91;;;10.31;100.00
36726;BME280;44936;52.086;5.150;2023-05-25T01:49:28;103271.03;;;10.17;100.00
36726;BME280;44936;52.086;5.150;2023-05-25T01:51:59;103303.13;;;10.31;100.00
36726;BME280;44936;52.086;5.150;2023-05-25T01:54:37;103306.53;;;10.28;100.00
36726;BME280;44936;52.086;5.150;2023-05-25T01:57:09;103301.22;;;10.27;100.00
36726;BME280;44936;52.086;5.150;2023-05-25T01:59:37;103290.56;;;10.24;100.00
36726;BME280;44936;52.086;5.150;2023-05-25T02:02:03;103288.03;;;10.25;100.00
36726;BME280;44936;52.086;5.150;2023-05-25T02:04:29;103294.09;;;10.24;100.00
36726;BME280;44936;52.086;5.150;2023-05-25T02:06:55;103284.59;;;10.26;100.00
36726;BME280;44936;52.086;5.150;2023-05-25T02:09:21;103280.09;;;10.24;100.00
36726;BME280;44936;52.086;5.150;2023-05-25T02:11:48;103280.19;;;10.25;100.00
36726;BME280;44936;52.086;5.150;2023-05-25T02:14:14;103269.53;;;10.22;100.00
36726;BME280;44936;52.086;5.150;2023-05-25T02:16:40;103272.91;;;10.19;100.00
36726;BME280;44936;52.086;5.150;2023-05-25T02:19:05;103253.31;;;10.11;100.00
36726;BME280;44936;52.086;5.150;2023-05-25T02:21:31;103251.53;;;10.10;100.00
36726;BME280;44936;52.086;5.150;2023-05-25T02:23:56;103256.06;;;10.14;100.00
36726;BME280;44936;52.086;5.150;2023-05-25T02:26:22;103257.66;;;10.11;100.00
36726;BME280;44936;52.086;5.150;2023-05-25T02:28:47;103254.81;;;10.06;100.00
36726;BME280;44936;52.086;5.150;2023-05-25T02:31:12;103264.56;;;10.09;100.00
36726;BME280;44936;52.086;5.150;2023-05-25T02:33:38;103259.94;;;10.03;100.00
36726;BME280;44936;52.086;5.150;2023-05-25T02:36:03;103256.22;;;9.98;100.00
36726;BME280;44936;52.086;5.150;2023-05-25T02:38:29;103260.56;;;9.98;100.00
36726;BME280;44936;52.086;5.150;2023-05-25T02:40:54;103268.56;;;10.01;100.00
36726;BME280;44936;52.086;5.150;2023-05-25T02:43:20;103258.75;;;9.97;100.00
36726;BME280;44936;52.086;5.150;2023-05-25T02:45:45;103262.22;;;9.96;100.00
36726;BME280;44936;52.086;5.150;2023-05-25T02:48:10;103240.72;;;9.83;100.00
36726;BME280;44936;52.086;5.150;2023-05-25T02:50:36;103284.31;;;10.01;100.00
36726;BME280;44936;52.086;5.150;2023-05-25T02:53:01;103277.13;;;9.97;100.00
36726;BME280;44936;52.086;5.150;2023-05-25T02:55:27;103288.38;;;9.94;100.00
36726;BME280;44936;52.086;5.150;2023-05-25T02:57:52;103286.53;;;9.91;100.00
36726;BME280;44936;52.086;5.150;2023-05-25T03:00:18;103286.38;;;9.88;100.00
36726;BME280;44936;52.086;5.150;2023-05-25T03:02:44;103294.22;;;9.88;100.00
36726;BME280;44936;52.086;5.150;2023-05-25T03:05:10;103280.66;;;9.78;100.00
36726;BME280;44936;52.086;5.150;2023-05-25T03:07:36;103301.00;;;9.83;100.00
36726;BME280;44936;52.086;5.150;2023-05-25T03:10:02;103302.66;;;9.81;100.00
36726;BME280;44936;52.086;5.150;2023-05-25T03:12:27;103303.34;;;9.77;100.00
36726;BME280;44936;52.086;5.150;2023-05-25T03:14:52;103311.91;;;9.73;100.00
36726;BME280;44936;52.086;5.150;2023-05-25T03:17:18;103275.81;;;9.68;100.00
36726;BME280;44936;52.086;5.150;2023-05-25T03:19:43;103288.50;;;9.78;100.00
36726;BME280;44936;52.086;5.150;2023-05-25T03:22:08;103250.38;;;9.65;100.00
36726;BME280;44936;52.086;5.150;2023-05-25T03:24:34;103264.97;;;9.79;100.00
36726;BME280;44936;52.086;5.150;2023-05-25T03:26:59;103249.00;;;9.73;100.00
36726;BME280;44936;52.086;5.150;2023-05-25T03:29:24;103244.31;;;9.47;100.00
36726;BME280;44936;52.086;5.150;2023-05-25T03:31:51;103236.09;;;9.39;100.00
36726;BME280;44936;52.086;5.150;2023-05-25T03:34:16;103226.50;;;9.40;100.00
36726;BME280;44936;52.086;5.150;2023-05-25T03:36:41;103200.44;;;9.43;100.00
36726;BME280;44936;52.086;5.150;2023-05-25T03:39:10;103182.13;;;9.43;100.00
36726;BME280;44936;52.086;5.150;2023-05-25T03:41:36;103174.41;;;9.46;100.00
36726;BME280;44936;52.086;5.150;2023-05-25T03:44:01;103135.38;;;9.32;100.00
36726;BME280;44936;52.086;5.150;2023-05-25T03:46:26;103141.16;;;9.45;100.00
36726;BME280;44936;52.086;5.150;2023-05-25T03:48:52;103123.66;;;9.44;100.00
36726;BME280;44936;52.086;5.150;2023-05-25T03:51:17;103101.97;;;9.46;100.00
36726;BME280;44936;52.086;5.150;2023-05-25T03:53:42;103101.88;;;9.45;100.00
36726;BME280;44936;52.086;5.150;2023-05-25T03:56:08;103096.72;;;9.46;100.00
36726;BME280;44936;52.086;5.150;2023-05-25T03:58:33;103094.28;;;9.51;100.00
36726;BME280;44936;52.086;5.150;2023-05-25T04:00:58;103086.31;;;9.48;100.00
36726;BME280;44936;52.086;5.150;2023-05-25T04:03:24;103086.38;;;9.49;100.00
36726;BME280;44936;52.086;5.150;2023-05-25T04:05:49;103091.94;;;9.57;100.00
36726;BME280;44936;52.086;5.150;2023-05-25T04:08:15;103091.94;;;9.57;100.00
36726;BME280;44936;52.086;5.150;2023-05-25T04:10:45;103084.91;;;9.56;100.00
36726;BME280;44936;52.086;5.150;2023-05-25T04:13:11;103075.00;;;9.49;100.00
36726;BME280;44936;52.086;5.150;2023-05-25T04:15:37;103090.78;;;9.50;100.00
36726;BME280;44936;52.086;5.150;2023-05-25T04:18:02;103099.53;;;9.51;100.00
36726;BME280;44936;52.086;5.150;2023-05-25T04:20:28;103132.25;;;9.60;100.00
36726;BME280;44936;52.086;5.150;2023-05-25T04:22:54;103149.84;;;9.63;100.00
36726;BME280;44936;52.086;5.150;2023-05-25T04:25:19;103169.97;;;9.64;100.00
36726;BME280;44936;52.086;5.150;2023-05-25T04:27:46;103178.88;;;9.68;100.00
36726;BME280;44936;52.086;5.150;2023-05-25T04:30:11;103189.41;;;9.69;100.00
36726;BME280;44936;52.086;5.150;2023-05-25T04:32:37;103191.63;;;9.60;100.00
36726;BME280;44936;52.086;5.150;2023-05-25T04:35:03;103209.41;;;9.67;100.00
36726;BME280;44936;52.086;5.150;2023-05-25T04:37:29;103234.91;;;9.71;100.00
36726;BME280;44936;52.086;5.150;2023-05-25T04:39:56;103256.16;;;9.77;100.00
36726;BME280;44936;52.086;5.150;2023-05-25T04:42:22;103263.34;;;9.81;100.00
36726;BME280;44936;52.086;5.150;2023-05-25T04:44:48;103272.19;;;9.83;100.00
36726;BME280;44936;52.086;5.150;2023-05-25T04:47:14;103277.69;;;9.89;100.00
36726;BME280;44936;52.086;5.150;2023-05-25T04:49:40;103290.09;;;9.93;100.00
36726;BME280;44936;52.086;5.150;2023-05-25T04:52:05;103305.84;;;9.93;100.00
36726;BME280;44936;52.086;5.150;2023-05-25T04:54:31;103319.00;;;9.95;100.00
36726;BME280;44936;52.086;5.150;2023-05-25T04:56:56;103334.84;;;9.98;100.00
36726;BME280;44936;52.086;5.150;2023-05-25T04:59:21;103366.63;;;10.04;100.00
36726;BME280;44936;52.086;5.150;2023-05-25T05:01:47;103383.53;;;10.11;100.00
36726;BME280;44936;52.086;5.150;2023-05-25T05:04:12;103376.50;;;10.10;100.00
36726;BME280;44936;52.086;5.150;2023-05-25T05:06:40;103402.19;;;10.17;100.00
36726;BME280;44936;52.086;5.150;2023-05-25T05:09:05;103413.63;;;10.19;100.00
36726;BME280;44936;52.086;5.150;2023-05-25T05:11:31;103424.44;;;10.25;100.00
36726;BME280;44936;52.086;5.150;2023-05-25T05:13:56;103421.00;;;10.26;100.00
36726;BME280;44936;52.086;5.150;2023-05-25T05:16:23;103431.59;;;10.29;100.00
36726;BME280;44936;52.086;5.150;2023-05-25T05:18:48;103441.50;;;10.35;100.00
36726;BME280;44936;52.086;5.150;2023-05-25T05:21:14;103436.44;;;10.39;100.00
36726;BME280;44936;52.086;5.150;2023-05-25T05:23:41;103446.03;;;10.39;100.00
36726;BME280;44936;52.086;5.150;2023-05-25T05:26:07;103452.88;;;10.35;100.00
36726;BME280;44936;52.086;5.150;2023-05-25T05:28:35;103449.63;;;10.41;100.00
36726;BME280;44936;52.086;5.150;2023-05-25T05:31:00;103470.19;;;10.51;100.00
36726;BME280;44936;52.086;5.150;2023-05-25T05:33:25;103466.66;;;10.50;100.00
36726;BME280;44936;52.086;5.150;2023-05-25T05:35:51;103475.94;;;10.62;100.00
36726;BME280;44936;52.086;5.150;2023-05-25T05:38:17;103472.69;;;10.67;100.00
36726;BME280;44936;52.086;5.150;2023-05-25T05:40:42;103470.00;;;10.66;100.00
36726;BME280;44936;52.086;5.150;2023-05-25T05:43:12;103476.41;;;10.72;100.00
36726;BME280;44936;52.086;5.150;2023-05-25T05:45:37;103476.69;;;10.78;100.00
36726;BME280;44936;52.086;5.150;2023-05-25T05:48:03;103475.09;;;10.82;100.00
36726;BME280;44936;52.086;5.150;2023-05-25T05:50:29;103479.09;;;10.93;100.00
36726;BME280;44936;52.086;5.150;2023-05-25T05:52:54;103475.94;;;10.81;100.00
36726;BME280;44936;52.086;5.150;2023-05-25T05:55:19;103468.34;;;10.87;100.00
36726;BME280;44936;52.086;5.150;2023-05-25T05:57:45;103484.28;;;10.92;100.00
36726;BME280;44936;52.086;5.150;2023-05-25T06:00:11;103477.28;;;10.92;100.00
36726;BME280;44936;52.086;5.150;2023-05-25T06:02:36;103472.53;;;10.84;100.00
36726;BME280;44936;52.086;5.150;2023-05-25T06:05:02;103510.25;;;11.05;100.00
36726;BME280;44936;52.086;5.150;2023-05-25T06:07:27;103508.53;;;11.05;100.00
36726;BME280;44936;52.086;5.150;2023-05-25T06:09:54;103528.19;;;11.15;100.00
36726;BME280;44936;52.086;5.150;2023-05-25T06:12:20;103515.69;;;11.10;100.00
36726;BME280;44936;52.086;5.150;2023-05-25T06:14:45;103534.88;;;11.28;100.00
36726;BME280;44936;52.086;5.150;2023-05-25T06:17:14;103522.44;;;11.24;100.00
36726;BME280;44936;52.086;5.150;2023-05-25T06:19:41;103543.81;;;11.31;100.00
36726;BME280;44936;52.086;5.150;2023-05-25T06:22:06;103538.84;;;11.39;100.00
36726;BME280;44936;52.086;5.150;2023-05-25T06:24:31;103544.31;;;11.44;100.00
36726;BME280;44936;52.086;5.150;2023-05-25T06:26:57;103534.69;;;11.44;100.00
36726;BME280;44936;52.086;5.150;2023-05-25T06:29:22;103535.97;;;11.54;100.00
36726;BME280;44936;52.086;5.150;2023-05-25T06:31:47;103540.16;;;11.49;100.00
36726;BME280;44936;52.086;5.150;2023-05-25T06:34:13;103536.75;;;11.51;100.00
36726;BME280;44936;52.086;5.150;2023-05-25T06:36:38;103550.59;;;11.68;100.00
36726;BME280;44936;52.086;5.150;2023-05-25T06:39:03;103546.94;;;11.64;100.00
36726;BME280;44936;52.086;5.150;2023-05-25T06:41:29;103546.25;;;11.69;100.00
36726;BME280;44936;52.086;5.150;2023-05-25T06:43:54;103565.03;;;11.78;100.00
36726;BME280;44936;52.086;5.150;2023-05-25T06:46:20;103562.94;;;11.90;100.00
36726;BME280;44936;52.086;5.150;2023-05-25T06:48:45;103563.31;;;11.99;100.00
36726;BME280;44936;52.086;5.150;2023-05-25T06:51:11;103584.03;;;12.12;100.00
36726;BME280;44936;52.086;5.150;2023-05-25T06:53:37;103561.09;;;12.10;100.00
36726;BME280;44936;52.086;5.150;2023-05-25T06:56:04;103564.19;;;12.21;100.00
36726;BME280;44936;52.086;5.150;2023-05-25T06:58:29;103562.81;;;12.30;100.00
36726;BME280;44936;52.086;5.150;2023-05-25T07:00:55;103550.00;;;12.39;100.00
36726;BME280;44936;52.086;5.150;2023-05-25T07:03:20;103541.56;;;12.26;100.00
36726;BME280;44936;52.086;5.150;2023-05-25T07:05:46;103565.91;;;12.42;100.00
36726;BME280;44936;52.086;5.150;2023-05-25T07:08:11;103570.69;;;12.53;100.00
36726;BME280;44936;52.086;5.150;2023-05-25T07:10:36;103586.13;;;12.66;100.00
36726;BME280;44936;52.086;5.150;2023-05-25T07:13:01;103574.84;;;12.70;100.00
36726;BME280;44936;52.086;5.150;2023-05-25T07:15:27;103580.38;;;12.76;100.00
36726;BME280;44936;52.086;5.150;2023-05-25T07:17:52;103579.56;;;12.79;100.00
36726;BME280;44936;52.086;5.150;2023-05-25T07:20:21;103568.31;;;12.83;100.00
36726;BME280;44936;52.086;5.150;2023-05-25T07:22:47;103570.13;;;12.84;100.00
36726;BME280;44936;52.086;5.150;2023-05-25T07:25:13;103572.25;;;12.94;100.00
36726;BME280;44936;52.086;5.150;2023-05-25T07:27:38;103577.94;;;13.06;100.00
36726;BME280;44936;52.086;5.150;2023-05-25T07:30:04;103564.06;;;13.10;100.00
36726;BME280;44936;52.086;5.150;2023-05-25T07:32:30;103572.56;;;13.25;100.00
36726;BME280;44936;52.086;5.150;2023-05-25T07:34:56;103575.38;;;13.31;100.00
36726;BME280;44936;52.086;5.150;2023-05-25T07:37:21;103576.72;;;13.44;100.00
36726;BME280;44936;52.086;5.150;2023-05-25T07:39:46;103581.69;;;13.60;100.00
36726;BME280;44936;52.086;5.150;2023-05-25T07:42:12;103581.41;;;13.78;100.00
36726;BME280;44936;52.086;5.150;2023-05-25T07:44:37;103602.16;;;13.95;100.00
36726;BME280;44936;52.086;5.150;2023-05-25T07:47:02;103591.19;;;14.08;100.00
36726;BME280;44936;52.086;5.150;2023-05-25T07:49:28;103571.22;;;14.16;100.00
36726;BME280;44936;52.086;5.150;2023-05-25T07:51:53;103565.06;;;14.17;100.00
36726;BME280;44936;52.086;5.150;2023-05-25T07:54:18;103561.25;;;14.07;100.00
36726;BME280;44936;52.086;5.150;2023-05-25T07:56:44;103559.88;;;14.20;100.00
36726;BME280;44936;52.086;5.150;2023-05-25T07:59:09;103570.88;;;14.34;100.00
36726;BME280;44936;52.086;5.150;2023-05-25T08:01:35;103575.88;;;14.52;100.00
36726;BME280;44936;52.086;5.150;2023-05-25T08:04:00;103572.38;;;14.53;100.00
36726;BME280;44936;52.086;5.150;2023-05-25T08:06:26;103556.09;;;14.67;100.00
36726;BME280;44936;52.086;5.150;2023-05-25T08:08:51;103573.84;;;14.73;100.00
36726;BME280;44936;52.086;5.150;2023-05-25T08:11:16;103566.38;;;14.88;100.00
36726;BME280;44936;52.086;5.150;2023-05-25T08:13:46;103565.34;;;14.83;100.00
36726;BME280;44936;52.086;5.150;2023-05-25T08:16:12;103575.34;;;14.93;100.00
36726;BME280;44936;52.086;5.150;2023-05-25T08:18:37;103558.53;;;14.91;100.00
36726;BME280;44936;52.086;5.150;2023-05-25T08:21:02;103571.59;;;14.85;100.00
36726;BME280;44936;52.086;5.150;2023-05-25T08:23:28;103569.09;;;14.91;100.00
36726;BME280;44936;52.086;5.150;2023-05-25T08:25:53;103599.75;;;15.16;100.00
36726;BME280;44936;52.086;5.150;2023-05-25T08:28:21;103587.78;;;15.29;100.00
36726;BME280;44936;52.086;5.150;2023-05-25T08:30:47;103578.16;;;15.31;100.00
36726;BME280;44936;52.086;5.150;2023-05-25T08:33:12;103573.06;;;15.39;100.00
36726;BME280;44936;52.086;5.150;2023-05-25T08:35:37;103586.75;;;15.55;100.00
36726;BME280;44936;52.086;5.150;2023-05-25T08:38:05;103575.13;;;15.50;100.00
36726;BME280;44936;52.086;5.150;2023-05-25T08:40:30;103573.72;;;15.30;100.00
36726;BME280;44936;52.086;5.150;2023-05-25T08:42:56;103580.44;;;15.52;100.00
36726;BME280;44936;52.086;5.150;2023-05-25T08:45:22;103576.97;;;15.54;100.00
36726;BME280;44936;52.086;5.150;2023-05-25T08:47:47;103582.13;;;15.48;100.00
36726;BME280;44936;52.086;5.150;2023-05-25T08:50:16;103571.69;;;15.54;100.00
36726;BME280;44936;52.086;5.150;2023-05-25T08:52:44;103564.53;;;15.50;100.00
36726;BME280;44936;52.086;5.150;2023-05-25T08:55:11;103566.69;;;15.64;100.00
36726;BME280;44936;52.086;5.150;2023-05-25T08:58:00;103569.41;;;15.67;100.00
36726;BME280;44936;52.086;5.150;2023-05-25T09:00:41;103553.50;;;15.65;100.00
36726;BME280;44936;52.086;5.150;2023-05-25T09:03:12;103570.72;;;15.84;100.00
36726;BME280;44936;52.086;5.150;2023-05-25T09:05:40;103553.41;;;15.98;100.00
36726;BME280;44936;52.086;5.150;2023-05-25T09:08:07;103538.19;;;15.88;100.00
36726;BME280;44936;52.086;5.150;2023-05-25T09:10:34;103525.84;;;15.89;100.00
36726;BME280;44936;52.086;5.150;2023-05-25T09:13:00;103552.19;;;16.22;100.00
36726;BME280;44936;52.086;5.150;2023-05-25T09:15:25;103520.47;;;16.25;100.00
36726;BME280;44936;52.086;5.150;2023-05-25T09:17:51;103512.81;;;16.37;100.00
36726;BME280;44936;52.086;5.150;2023-05-25T09:20:17;103481.22;;;16.46;100.00
36726;BME280;44936;52.086;5.150;2023-05-25T09:22:43;103487.59;;;16.56;100.00
36726;BME280;44936;52.086;5.150;2023-05-25T09:25:10;103478.59;;;16.46;100.00
36726;BME280;44936;52.086;5.150;2023-05-25T09:27:36;103479.53;;;16.50;100.00
36726;BME280;44936;52.086;5.150;2023-05-25T09:30:03;103476.84;;;16.48;100.00
36726;BME280;44936;52.086;5.150;2023-05-25T09:32:29;103472.13;;;16.33;100.00
36726;BME280;44936;52.086;5.150;2023-05-25T09:34:54;103474.75;;;16.33;100.00
36726;BME280;44936;52.086;5.150;2023-05-25T09:37:22;103477.50;;;16.36;100.00
36726;BME280;44936;52.086;5.150;2023-05-25T09:39:50;103478.31;;;16.34;100.00
36726;BME280;44936;52.086;5.150;2023-05-25T09:42:15;103420.63;;;16.19;100.00
36726;BME280;44936;52.086;5.150;2023-05-25T09:44:42;103425.28;;;16.31;100.00
36726;BME280;44936;52.086;5.150;2023-05-25T09:47:08;103434.22;;;16.36;100.00
36726;BME280;44936;52.086;5.150;2023-05-25T09:49:34;103423.56;;;16.33;100.00
36726;BME280;44936;52.086;5.150;2023-05-25T09:51:59;103466.00;;;16.36;100.00
36726;BME280;44936;52.086;5.150;2023-05-25T09:54:25;103436.88;;;16.36;100.00
36726;BME280;44936;52.086;5.150;2023-05-25T09:56:51;103443.03;;;16.35;100.00
36726;BME280;44936;52.086;5.150;2023-05-25T09:59:16;103472.41;;;16.47;100.00
36726;BME280;44936;52.086;5.150;2023-05-25T10:01:42;103477.75;;;16.49;100.00
36726;BME280;44936;52.086;5.150;2023-05-25T10:04:09;103448.56;;;16.47;100.00
36726;BME280;44936;52.086;5.150;2023-05-25T10:06:34;103476.47;;;16.70;100.00
36726;BME280;44936;52.086;5.150;2023-05-25T10:09:00;103442.63;;;16.60;100.00
36726;BME280;44936;52.086;5.150;2023-05-25T10:11:27;103460.38;;;16.63;100.00
36726;BME280;44936;52.086;5.150;2023-05-25T10:13:54;103458.50;;;16.59;100.00
36726;BME280;44936;52.086;5.150;2023-05-25T10:16:24;103471.84;;;16.62;100.00
36726;BME280;44936;52.086;5.150;2023-05-25T10:19:18;103474.38;;;16.57;100.00
36726;BME280;44936;52.086;5.150;2023-05-25T10:21:50;103493.28;;;16.73;100.00
36726;BME280;44936;52.086;5.150;2023-05-25T10:24:33;103493.50;;;16.85;100.00
36726;BME280;44936;52.086;5.150;2023-05-25T10:27:02;103474.09;;;16.86;100.00
36726;BME280;44936;52.086;5.150;2023-05-25T10:29:28;103475.78;;;16.82;100.00
36726;BME280;44936;52.086;5.150;2023-05-25T10:31:55;103498.88;;;16.88;100.00
36726;BME280;44936;52.086;5.150;2023-05-25T10:34:22;103470.34;;;16.75;100.00
36726;BME280;44936;52.086;5.150;2023-05-25T10:36:48;103480.22;;;16.82;100.00
36726;BME280;44936;52.086;5.150;2023-05-25T10:39:14;103475.06;;;16.89;100.00
36726;BME280;44936;52.086;5.150;2023-05-25T10:41:40;103506.06;;;16.95;100.00
36726;BME280;44936;52.086;5.150;2023-05-25T10:44:07;103507.09;;;17.03;100.00
36726;BME280;44936;52.086;5.150;2023-05-25T10:46:33;103513.44;;;17.11;100.00
36726;BME280;44936;52.086;5.150;2023-05-25T10:49:00;103503.84;;;17.18;100.00
36726;BME280;44936;52.086;5.150;2023-05-25T10:51:36;103480.72;;;17.09;100.00
36726;BME280;44936;52.086;5.150;2023-05-25T10:54:02;103509.41;;;17.32;100.00
36726;BME280;44936;52.086;5.150;2023-05-25T10:56:28;103456.72;;;17.03;100.00
36726;BME280;44936;52.086;5.150;2023-05-25T10:58:53;103505.44;;;17.07;100.00
36726;BME280;44936;52.086;5.150;2023-05-25T11:01:19;103493.84;;;17.03;100.00
36726;BME280;44936;52.086;5.150;2023-05-25T11:03:56;103497.19;;;16.93;100.00
36726;BME280;44936;52.086;5.150;2023-05-25T11:09:29;103512.41;;;17.03;100.00
36726;BME280;44936;52.086;5.150;2023-05-25T11:17:04;103471.25;;;17.23;100.00
36726;BME280;44936;52.086;5.150;2023-05-25T11:19:48;103471.81;;;17.06;100.00
36726;BME280;44936;52.086;5.150;2023-05-25T11:22:30;103471.53;;;16.90;100.00
36726;BME280;44936;52.086;5.150;2023-05-25T11:24:57;103496.16;;;16.85;100.00
36726;BME280;44936;52.086;5.150;2023-05-25T11:29:49;103506.88;;;16.89;100.00
36726;BME280;44936;52.086;5.150;2023-05-25T11:32:15;103502.47;;;16.90;100.00
36726;BME280;44936;52.086;5.150;2023-05-25T11:34:41;103469.56;;;16.79;100.00
36726;BME280;44936;52.086;5.150;2023-05-25T11:37:11;103474.91;;;16.82;100.00
36726;BME280;44936;52.086;5.150;2023-05-25T11:39:36;103467.25;;;16.97;100.00
36726;BME280;44936;52.086;5.150;2023-05-25T11:42:03;103472.66;;;17.05;100.00
36726;BME280;44936;52.086;5.150;2023-05-25T11:44:32;103455.84;;;17.04;100.00
36726;BME280;44936;52.086;5.150;2023-05-25T11:47:01;103459.41;;;17.05;100.00
36726;BME280;44936;52.086;5.150;2023-05-25T11:49:29;103431.16;;;17.05;100.00
36726;BME280;44936;52.086;5.150;2023-05-25T11:51:55;103418.72;;;17.03;100.00
36726;BME280;44936;52.086;5.150;2023-05-25T11:54:26;103437.31;;;17.04;100.00
36726;BME280;44936;52.086;5.150;2023-05-25T11:56:53;103415.59;;;17.28;100.00
36726;BME280;44936;52.086;5.150;2023-05-25T11:59:22;103402.19;;;17.19;100.00
36726;BME280;44936;52.086;5.150;2023-05-25T12:01:59;103376.66;;;17.24;100.00
36726;BME280;44936;52.086;5.150;2023-05-25T12:04:25;103387.31;;;17.28;100.00
36726;BME280;44936;52.086;5.150;2023-05-25T12:06:51;103405.09;;;17.33;100.00
36726;BME280;44936;52.086;5.150;2023-05-25T12:09:20;103373.19;;;17.30;100.00
36726;BME280;44936;52.086;5.150;2023-05-25T12:11:48;103338.41;;;17.10;100.00
36726;BME280;44936;52.086;5.150;2023-05-25T12:14:14;103340.06;;;17.03;100.00
36726;BME280;44936;52.086;5.150;2023-05-25T12:16:40;103340.28;;;17.15;100.00
36726;BME280;44936;52.086;5.150;2023-05-25T12:19:06;103339.41;;;17.18;100.00
36726;BME280;44936;52.086;5.150;2023-05-25T12:21:33;103364.88;;;17.07;100.00
36726;BME280;44936;52.086;5.150;2023-05-25T12:23:59;103347.38;;;17.16;100.00
36726;BME280;44936;52.086;5.150;2023-05-25T12:26:25;103351.97;;;17.31;100.00
36726;BME280;44936;52.086;5.150;2023-05-25T12:29:05;103344.69;;;17.15;100.00
36726;BME280;44936;52.086;5.150;2023-05-25T12:31:35;103321.53;;;17.05;100.00
36726;BME280;44936;52.086;5.150;2023-05-25T12:34:10;103342.81;;;17.09;100.00
36726;BME280;44936;52.086;5.150;2023-05-25T12:36:37;103361.41;;;17.11;100.00
36726;BME280;44936;52.086;5.150;2023-05-25T12:39:03;103369.81;;;17.40;100.00
36726;BME280;44936;52.086;5.150;2023-05-25T12:41:29;103302.66;;;17.42;100.00
36726;BME280;44936;52.086;5.150;2023-05-25T12:43:55;103342.56;;;17.50;100.00
36726;BME280;44936;52.086;5.150;2023-05-25T12:46:24;103320.97;;;17.24;100.00
36726;BME280;44936;52.086;5.150;2023-05-25T12:48:50;103343.38;;;17.47;100.00
36726;BME280;44936;52.086;5.150;2023-05-25T12:51:22;103341.38;;;17.31;100.00